sensor_id;sensor_type;location;lat;lon;timestamp;temperature;humidity
9828;DHT22;4953;48.952;9.442;2022-10-17T04:00:27;13.20;99.90
9828;DHT22;4953;48.952;9.442;2022-10-17T04:02:54;13.20;99.90
9828;DHT22;4953;48.952;9.442;2022-10-17T04:05:21;13.10;99.90
9828;DHT22;4953;48.952;9.442;2022-10-17T04:07:47;13.20;99.90
9828;DHT22;4953;48.952;9.442;2022-10-17T04:10:14;13.20;99.90
9828;DHT22;4953;48.952;9.442;2022-10-17T04:12:41;13.20;99.90
9828;DHT22;4953;48.952;9.442;2022-10-17T04:15:08;13.20;99.90
9828;DHT22;4953;48.952;9.442;2022-10-17T04:17:37;13.10;99.90
9828;DHT22;4953;48.952;9.442;2022-10-17T04:20:04;13.10;99.90
9828;DHT22;4953;48.952;9.442;2022-10-17T04:22:31;13.10;99.90
9828;DHT22;4953;48.952;9.442;2022-10-17T04:24:58;13.10;99.90
9828;DHT22;4953;48.952;9.442;2022-10-17T04:27:25;13.10;99.90
9828;DHT22;4953;48.952;9.442;2022-10-17T04:29:52;13.10;99.90
9828;DHT22;4953;48.952;9.442;2022-10-17T04:32:18;13.10;99.90
9828;DHT22;4953;48.952;9.442;2022-10-17T04:34:48;13.10;99.90
9828;DHT22;4953;48.952;9.442;2022-10-17T04:37:15;13.10;99.90
9828;DHT22;4953;48.952;9.442;2022-10-17T04:39:42;13.00;99.90
9828;DHT22;4953;48.952;9.442;2022-10-17T04:42:09;13.00;99.90
9828;DHT22;4953;48.952;9.442;2022-10-17T04:44:35;13.00;99.90
9828;DHT22;4953;48.952;9.442;2022-10-17T04:47:02;13.00;99.90
9828;DHT22;4953;48.952;9.442;2022-10-17T04:49:29;13.00;99.90
9828;DHT22;4953;48.952;9.442;2022-10-17T04:51:57;13.00;99.90
9828;DHT22;4953;48.952;9.442;2022-10-17T04:54:24;13.00;99.90
9828;DHT22;4953;48.952;9.442;2022-10-17T04:56:51;12.90;99.90
9828;DHT22;4953;48.952;9.442;2022-10-17T04:59:18;12.90;99.90
9828;DHT22;4953;48.952;9.442;2022-10-17T05:01:44;12.90;99.90
9828;DHT22;4953;48.952;9.442;2022-10-17T05:04:11;12.90;99.90
9828;DHT22;4953;48.952;9.442;2022-10-17T05:06:38;12.90;99.90
9828;DHT22;4953;48.952;9.442;2022-10-17T05:09:06;12.80;99.90
9828;DHT22;4953;48.952;9.442;2022-10-17T05:11:33;12.80;99.90
9828;DHT22;4953;48.952;9.442;2022-10-17T05:14:01;12.80;99.90
9828;DHT22;4953;48.952;9.442;2022-10-17T05:16:28;12.80;99.90
9828;DHT22;4953;48.952;9.442;2022-10-17T05:18:56;12.80;99.90
9828;DHT22;4953;48.952;9.442;2022-10-17T05:21:25;12.80;99.90
9828;DHT22;4953;48.952;9.442;2022-10-17T05:23:52;12.70;99.90
9828;DHT22;4953;48.952;9.442;2022-10-17T05:26:20;12.70;99.90
9828;DHT22;4953;48.952;9.442;2022-10-17T05:28:47;12.70;99.90
9828;DHT22;4953;48.952;9.442;2022-10-17T05:31:14;12.70;99.90
9828;DHT22;4953;48.952;9.442;2022-10-17T05:33:41;12.70;99.90
9828;DHT22;4953;48.952;9.442;2022-10-17T05:36:08;12.70;99.90
9828;DHT22;4953;48.952;9.442;2022-10-17T05:38:35;12.70;99.90
9828;DHT22;4953;48.952;9.442;2022-10-17T05:41:03;12.70;99.90
9828;DHT22;4953;48.952;9.442;2022-10-17T05:43:33;12.70;99.90
9828;DHT22;4953;48.952;9.442;2022-10-17T05:46:03;12.70;99.90
9828;DHT22;4953;48.952;9.442;2022-10-17T05:48:30;12.70;99.90
9828;DHT22;4953;48.952;9.442;2022-10-17T05:50:58;12.70;99.90
9828;DHT22;4953;48.952;9.442;2022-10-17T05:53:25;12.70;99.90
9828;DHT22;4953;48.952;9.442;2022-10-17T05:55:56;12.70;99.90
9828;DHT22;4953;48.952;9.442;2022-10-17T05:58:23;12.70;99.90
9828;DHT22;4953;48.952;9.442;2022-10-17T06:00:51;12.70;99.90
9828;DHT22;4953;48.952;9.442;2022-10-17T06:03:22;12.70;99.90
9828;DHT22;4953;48.952;9.442;2022-10-17T06:05:49;12.70;99.90
9828;DHT22;4953;48.952;9.442;2022-10-17T06:08:17;12.70;99.90
9828;DHT22;4953;48.952;9.442;2022-10-17T06:10:46;12.70;99.90
9828;DHT22;4953;48.952;9.442;2022-10-17T06:13:13;12.80;99.90
9828;DHT22;4953;48.952;9.442;2022-10-17T06:15:40;12.70;99.90
9828;DHT22;4953;48.952;9.442;2022-10-17T06:18:09;12.70;99.90
9828;DHT22;4953;48.952;9.442;2022-10-17T06:20:36;12.80;99.90
9828;DHT22;4953;48.952;9.442;2022-10-17T06:23:04;12.80;99.90
9828;DHT22;4953;48.952;9.442;2022-10-17T06:25:31;12.80;99.90
9828;DHT22;4953;48.952;9.442;2022-10-17T06:27:57;12.80;99.90
9828;DHT22;4953;48.952;9.442;2022-10-17T06:30:24;12.70;99.90
9828;DHT22;4953;48.952;9.442;2022-10-17T06:32:51;12.80;99.90
9828;DHT22;4953;48.952;9.442;2022-10-17T06:35:20;12.70;99.90
9828;DHT22;4953;48.952;9.442;2022-10-17T06:37:47;12.80;99.90
9828;DHT22;4953;48.952;9.442;2022-10-17T06:40:14;12.80;99.90
9828;DHT22;4953;48.952;9.442;2022-10-17T06:42:41;12.80;99.90
9828;DHT22;4953;48.952;9.442;2022-10-17T06:45:09;12.80;99.90
9828;DHT22;4953;48.952;9.442;2022-10-17T06:47:36;12.80;99.90
9828;DHT22;4953;48.952;9.442;2022-10-17T06:50:03;12.80;99.90
9828;DHT22;4953;48.952;9.442;2022-10-17T06:52:31;12.80;99.90
9828;DHT22;4953;48.952;9.442;2022-10-17T06:54:58;12.80;99.90
9828;DHT22;4953;48.952;9.442;2022-10-17T06:57:26;12.80;99.90
9828;DHT22;4953;48.952;9.442;2022-10-17T06:59:52;12.80;99.90
9828;DHT22;4953;48.952;9.442;2022-10-17T07:02:19;12.80;99.90
9828;DHT22;4953;48.952;9.442;2022-10-17T07:04:48;12.80;99.90
9828;DHT22;4953;48.952;9.442;2022-10-17T07:07:15;12.80;99.90
9828;DHT22;4953;48.952;9.442;2022-10-17T07:09:43;12.80;99.90
9828;DHT22;4953;48.952;9.442;2022-10-17T07:12:10;12.90;99.90
9828;DHT22;4953;48.952;9.442;2022-10-17T07:14:37;12.90;99.90
9828;DHT22;4953;48.952;9.442;2022-10-17T07:17:04;13.00;99.90
9828;DHT22;4953;48.952;9.442;2022-10-17T07:19:30;13.00;99.90
9828;DHT22;4953;48.952;9.442;2022-10-17T07:22:00;13.00;99.90
9828;DHT22;4953;48.952;9.442;2022-10-17T07:24:27;13.00;99.90
9828;DHT22;4953;48.952;9.442;2022-10-17T07:26:55;13.10;99.90
9828;DHT22;4953;48.952;9.442;2022-10-17T07:29:21;13.10;99.90
9828;DHT22;4953;48.952;9.442;2022-10-17T07:31:48;13.10;99.90
9828;DHT22;4953;48.952;9.442;2022-10-17T07:34:16;13.20;99.90
9828;DHT22;4953;48.952;9.442;2022-10-17T07:36:43;13.20;99.90
9828;DHT22;4953;48.952;9.442;2022-10-17T07:39:10;13.30;99.90
9828;DHT22;4953;48.952;9.442;2022-10-17T07:41:37;13.40;99.90
9828;DHT22;4953;48.952;9.442;2022-10-17T07:44:05;13.50;99.90
9828;DHT22;4953;48.952;9.442;2022-10-17T07:46:33;13.50;99.90
9828;DHT22;4953;48.952;9.442;2022-10-17T07:48:59;13.60;99.90
9828;DHT22;4953;48.952;9.442;2022-10-17T07:51:26;13.60;99.90
9828;DHT22;4953;48.952;9.442;2022-10-17T07:53:53;13.70;99.90
9828;DHT22;4953;48.952;9.442;2022-10-17T07:56:20;13.80;99.90
9828;DHT22;4953;48.952;9.442;2022-10-17T07:58:49;13.80;99.90
9828;DHT22;4953;48.952;9.442;2022-10-17T08:01:17;14.00;99.90
9828;DHT22;4953;48.952;9.442;2022-10-17T08:03:45;14.10;99.90
9828;DHT22;4953;48.952;9.442;2022-10-17T08:06:13;14.20;99.90
9828;DHT22;4953;48.952;9.442;2022-10-17T08:08:40;14.30;99.90
9828;DHT22;4953;48.952;9.442;2022-10-17T08:11:10;14.40;99.90
9828;DHT22;4953;48.952;9.442;2022-10-17T08:13:39;14.50;99.90
9828;DHT22;4953;48.952;9.442;2022-10-17T08:16:08;14.60;99.90
9828;DHT22;4953;48.952;9.442;2022-10-17T08:18:39;14.70;99.90
9828;DHT22;4953;48.952;9.442;2022-10-17T08:21:06;14.90;99.90
9828;DHT22;4953;48.952;9.442;2022-10-17T08:23:53;15.00;99.90
9828;DHT22;4953;48.952;9.442;2022-10-17T08:26:19;15.20;99.90
9828;DHT22;4953;48.952;9.442;2022-10-17T08:28:47;15.30;99.90
9828;DHT22;4953;48.952;9.442;2022-10-17T08:31:15;15.50;99.90
9828;DHT22;4953;48.952;9.442;2022-10-17T08:33:45;15.60;99.90
9828;DHT22;4953;48.952;9.442;2022-10-17T08:36:14;15.70;99.90
9828;DHT22;4953;48.952;9.442;2022-10-17T08:38:42;15.90;99.90
9828;DHT22;4953;48.952;9.442;2022-10-17T08:41:13;16.00;99.90
9828;DHT22;4953;48.952;9.442;2022-10-17T08:43:49;16.20;99.90
9828;DHT22;4953;48.952;9.442;2022-10-17T08:46:19;16.30;99.90
9828;DHT22;4953;48.952;9.442;2022-10-17T08:48:48;16.40;99.90
9828;DHT22;4953;48.952;9.442;2022-10-17T08:51:20;16.50;99.90
9828;DHT22;4953;48.952;9.442;2022-10-17T08:53:52;16.60;99.90
9828;DHT22;4953;48.952;9.442;2022-10-17T08:56:34;16.80;99.90
9828;DHT22;4953;48.952;9.442;2022-10-17T08:59:04;16.90;99.90
9828;DHT22;4953;48.952;9.442;2022-10-17T09:01:35;17.10;99.90
9828;DHT22;4953;48.952;9.442;2022-10-17T09:07:06;17.50;99.90
9828;DHT22;4953;48.952;9.442;2022-10-17T09:09:41;17.60;99.90
9828;DHT22;4953;48.952;9.442;2022-10-17T09:12:16;17.80;99.90
9828;DHT22;4953;48.952;9.442;2022-10-17T09:14:53;17.90;99.90
9828;DHT22;4953;48.952;9.442;2022-10-17T09:17:31;18.10;99.90
9828;DHT22;4953;48.952;9.442;2022-10-17T09:20:04;18.20;99.90
9828;DHT22;4953;48.952;9.442;2022-10-17T09:22:40;18.50;99.90
9828;DHT22;4953;48.952;9.442;2022-10-17T09:25:10;18.70;99.90
9828;DHT22;4953;48.952;9.442;2022-10-17T09:27:41;18.70;99.90
9828;DHT22;4953;48.952;9.442;2022-10-17T09:30:27;18.80;99.90
9828;DHT22;4953;48.952;9.442;2022-10-17T09:32:56;18.90;99.90
9828;DHT22;4953;48.952;9.442;2022-10-17T09:35:26;19.00;99.90
9828;DHT22;4953;48.952;9.442;2022-10-17T09:37:53;19.10;99.90
9828;DHT22;4953;48.952;9.442;2022-10-17T09:40:24;19.10;99.90
9828;DHT22;4953;48.952;9.442;2022-10-17T09:42:52;19.20;99.90
9828;DHT22;4953;48.952;9.442;2022-10-17T09:45:21;19.30;99.90
9828;DHT22;4953;48.952;9.442;2022-10-17T09:47:56;19.40;99.90
9828;DHT22;4953;48.952;9.442;2022-10-17T09:50:29;19.50;99.90
9828;DHT22;4953;48.952;9.442;2022-10-17T09:52:58;19.70;99.90
9828;DHT22;4953;48.952;9.442;2022-10-17T09:55:32;19.90;99.90
9828;DHT22;4953;48.952;9.442;2022-10-17T09:58:01;20.20;99.90
9828;DHT22;4953;48.952;9.442;2022-10-17T10:00:30;20.30;99.90
9828;DHT22;4953;48.952;9.442;2022-10-17T10:03:17;20.80;99.90
9828;DHT22;4953;48.952;9.442;2022-10-17T10:06:00;21.10;99.90
9828;DHT22;4953;48.952;9.442;2022-10-17T10:08:30;21.20;99.90
9828;DHT22;4953;48.952;9.442;2022-10-17T10:10:59;21.60;99.90
9828;DHT22;4953;48.952;9.442;2022-10-17T10:13:27;21.70;99.90
9828;DHT22;4953;48.952;9.442;2022-10-17T10:16:13;22.10;99.90
9828;DHT22;4953;48.952;9.442;2022-10-17T10:18:40;22.20;99.90
9828;DHT22;4953;48.952;9.442;2022-10-17T10:21:11;22.20;99.90
9828;DHT22;4953;48.952;9.442;2022-10-17T10:23:39;22.30;99.90
9828;DHT22;4953;48.952;9.442;2022-10-17T10:26:28;22.40;99.90
9828;DHT22;4953;48.952;9.442;2022-10-17T10:28:59;22.50;99.90
9828;DHT22;4953;48.952;9.442;2022-10-17T10:31:32;22.70;99.90
9828;DHT22;4953;48.952;9.442;2022-10-17T10:34:02;22.80;99.90
9828;DHT22;4953;48.952;9.442;2022-10-17T10:36:50;22.90;99.90
9828;DHT22;4953;48.952;9.442;2022-10-17T10:39:27;23.00;99.90
9828;DHT22;4953;48.952;9.442;2022-10-17T10:41:54;23.00;99.90
9828;DHT22;4953;48.952;9.442;2022-10-17T10:44:25;23.20;99.90
9828;DHT22;4953;48.952;9.442;2022-10-17T10:47:06;23.40;99.90
9828;DHT22;4953;48.952;9.442;2022-10-17T10:49:33;23.40;99.90
9828;DHT22;4953;48.952;9.442;2022-10-17T10:52:01;23.50;99.90
9828;DHT22;4953;48.952;9.442;2022-10-17T10:54:33;23.60;99.90
9828;DHT22;4953;48.952;9.442;2022-10-17T10:57:03;23.80;99.90
9828;DHT22;4953;48.952;9.442;2022-10-17T10:59:38;24.00;99.90
9828;DHT22;4953;48.952;9.442;2022-10-17T11:02:12;24.30;99.90
9828;DHT22;4953;48.952;9.442;2022-10-17T11:04:46;24.50;99.90
9828;DHT22;4953;48.952;9.442;2022-10-17T11:07:20;24.70;99.90
9828;DHT22;4953;48.952;9.442;2022-10-17T11:09:52;25.20;99.90
9828;DHT22;4953;48.952;9.442;2022-10-17T11:12:24;25.20;99.90
9828;DHT22;4953;48.952;9.442;2022-10-17T11:14:56;25.30;99.90
9828;DHT22;4953;48.952;9.442;2022-10-17T11:17:31;25.30;99.90
9828;DHT22;4953;48.952;9.442;2022-10-17T11:20:12;25.60;99.90
9828;DHT22;4953;48.952;9.442;2022-10-17T11:22:44;25.80;99.90
9828;DHT22;4953;48.952;9.442;2022-10-17T11:25:20;26.00;99.90
9828;DHT22;4953;48.952;9.442;2022-10-17T11:27:50;26.40;99.90
9828;DHT22;4953;48.952;9.442;2022-10-17T11:30:17;26.70;99.90
9828;DHT22;4953;48.952;9.442;2022-10-17T11:32:47;26.60;99.90
9828;DHT22;4953;48.952;9.442;2022-10-17T11:35:19;27.20;99.90
9828;DHT22;4953;48.952;9.442;2022-10-17T11:37:51;27.60;99.90
9828;DHT22;4953;48.952;9.442;2022-10-17T11:40:21;27.80;99.90
9828;DHT22;4953;48.952;9.442;2022-10-17T11:42:53;28.00;99.90
9828;DHT22;4953;48.952;9.442;2022-10-17T11:45:25;28.20;99.90
9828;DHT22;4953;48.952;9.442;2022-10-17T11:47:57;28.50;99.90
9828;DHT22;4953;48.952;9.442;2022-10-17T11:50:27;28.20;99.90
9828;DHT22;4953;48.952;9.442;2022-10-17T11:53:00;27.90;99.90
9828;DHT22;4953;48.952;9.442;2022-10-17T11:55:29;27.70;99.90
9828;DHT22;4953;48.952;9.442;2022-10-17T12:00:58;27.70;99.90
9828;DHT22;4953;48.952;9.442;2022-10-17T12:03:34;27.60;99.90
9828;DHT22;4953;48.952;9.442;2022-10-17T12:06:12;27.50;99.90
9828;DHT22;4953;48.952;9.442;2022-10-17T12:08:46;27.50;99.90
9828;DHT22;4953;48.952;9.442;2022-10-17T12:11:29;27.50;99.90
9828;DHT22;4953;48.952;9.442;2022-10-17T12:13:59;27.80;99.90
9828;DHT22;4953;48.952;9.442;2022-10-17T12:16:42;28.10;99.90
9828;DHT22;4953;48.952;9.442;2022-10-17T12:19:27;28.60;99.90
9828;DHT22;4953;48.952;9.442;2022-10-17T12:21:59;28.50;99.90
9828;DHT22;4953;48.952;9.442;2022-10-17T12:24:41;28.40;99.90
9828;DHT22;4953;48.952;9.442;2022-10-17T12:27:36;28.40;99.90
9828;DHT22;4953;48.952;9.442;2022-10-17T12:30:18;28.70;99.90
9828;DHT22;4953;48.952;9.442;2022-10-17T12:32:56;28.60;99.90
9828;DHT22;4953;48.952;9.442;2022-10-17T12:35:25;28.50;99.90
9828;DHT22;4953;48.952;9.442;2022-10-17T12:38:01;28.40;99.90
9828;DHT22;4953;48.952;9.442;2022-10-17T12:40:58;28.30;99.90
9828;DHT22;4953;48.952;9.442;2022-10-17T12:43:46;28.30;99.90
9828;DHT22;4953;48.952;9.442;2022-10-17T12:46:47;28.40;99.90
9828;DHT22;4953;48.952;9.442;2022-10-17T12:49:40;28.40;99.90
9828;DHT22;4953;48.952;9.442;2022-10-17T12:52:25;28.40;99.90
9828;DHT22;4953;48.952;9.442;2022-10-17T12:54:57;28.20;99.90
9828;DHT22;4953;48.952;9.442;2022-10-17T12:57:34;28.20;99.90
9828;DHT22;4953;48.952;9.442;2022-10-17T13:00:12;28.20;99.90
9828;DHT22;4953;48.952;9.442;2022-10-17T13:02:40;28.20;99.90
9828;DHT22;4953;48.952;9.442;2022-10-17T13:05:12;28.20;99.90
9828;DHT22;4953;48.952;9.442;2022-10-17T13:07:41;28.20;99.90
9828;DHT22;4953;48.952;9.442;2022-10-17T13:10:18;28.20;99.90
9828;DHT22;4953;48.952;9.442;2022-10-17T13:12:48;28.20;99.90
9828;DHT22;4953;48.952;9.442;2022-10-17T13:15:17;28.10;99.90
9828;DHT22;4953;48.952;9.442;2022-10-17T13:17:44;27.90;99.90
9828;DHT22;4953;48.952;9.442;2022-10-17T13:20:21;27.90;99.90
9828;DHT22;4953;48.952;9.442;2022-10-17T13:22:50;27.90;99.90
9828;DHT22;4953;48.952;9.442;2022-10-17T13:25:18;27.80;99.90
9828;DHT22;4953;48.952;9.442;2022-10-17T13:27:47;27.80;99.90
9828;DHT22;4953;48.952;9.442;2022-10-17T13:30:25;27.70;99.90
9828;DHT22;4953;48.952;9.442;2022-10-17T13:32:52;27.60;99.90
9828;DHT22;4953;48.952;9.442;2022-10-17T13:35:26;27.50;99.90
9828;DHT22;4953;48.952;9.442;2022-10-17T13:37:53;27.30;99.90
9828;DHT22;4953;48.952;9.442;2022-10-17T13:40:22;27.20;99.90
9828;DHT22;4953;48.952;9.442;2022-10-17T13:42:51;27.10;99.90
9828;DHT22;4953;48.952;9.442;2022-10-17T13:45:25;27.00;99.90
9828;DHT22;4953;48.952;9.442;2022-10-17T13:47:53;27.00;99.90
9828;DHT22;4953;48.952;9.442;2022-10-17T13:50:25;27.00;99.90
9828;DHT22;4953;48.952;9.442;2022-10-17T13:53:16;27.00;99.90
9828;DHT22;4953;48.952;9.442;2022-10-17T13:55:56;26.90;99.90
9828;DHT22;4953;48.952;9.442;2022-10-17T13:58:25;27.00;99.90
9828;DHT22;4953;48.952;9.442;2022-10-17T14:00:53;27.10;99.90
9828;DHT22;4953;48.952;9.442;2022-10-17T14:03:21;27.10;99.90
9828;DHT22;4953;48.952;9.442;2022-10-17T14:06:03;27.10;99.90
9828;DHT22;4953;48.952;9.442;2022-10-17T14:08:32;27.10;99.90
9828;DHT22;4953;48.952;9.442;2022-10-17T14:11:00;27.20;99.90
9828;DHT22;4953;48.952;9.442;2022-10-17T14:13:30;27.20;99.90
9828;DHT22;4953;48.952;9.442;2022-10-17T14:16:04;27.20;99.90
9828;DHT22;4953;48.952;9.442;2022-10-17T14:18:34;27.20;99.90
9828;DHT22;4953;48.952;9.442;2022-10-17T14:21:03;27.10;99.90
9828;DHT22;4953;48.952;9.442;2022-10-17T14:23:35;27.10;99.90
9828;DHT22;4953;48.952;9.442;2022-10-17T14:26:05;27.00;99.90
9828;DHT22;4953;48.952;9.442;2022-10-17T14:28:35;27.10;99.90
9828;DHT22;4953;48.952;9.442;2022-10-17T14:31:11;27.00;99.90
9828;DHT22;4953;48.952;9.442;2022-10-17T14:33:43;26.90;99.90
9828;DHT22;4953;48.952;9.442;2022-10-17T14:36:11;27.10;99.90
9828;DHT22;4953;48.952;9.442;2022-10-17T14:38:38;27.10;99.90
9828;DHT22;4953;48.952;9.442;2022-10-17T14:41:15;27.10;99.90
9828;DHT22;4953;48.952;9.442;2022-10-17T14:43:52;27.20;99.90
9828;DHT22;4953;48.952;9.442;2022-10-17T14:46:19;27.10;99.90
9828;DHT22;4953;48.952;9.442;2022-10-17T14:48:51;27.20;99.90
9828;DHT22;4953;48.952;9.442;2022-10-17T14:51:18;27.20;99.90
9828;DHT22;4953;48.952;9.442;2022-10-17T14:54:00;27.30;99.90
9828;DHT22;4953;48.952;9.442;2022-10-17T14:56:34;27.40;99.90
9828;DHT22;4953;48.952;9.442;2022-10-17T14:59:03;27.50;99.90
9828;DHT22;4953;48.952;9.442;2022-10-17T15:01:31;27.70;99.90
9828;DHT22;4953;48.952;9.442;2022-10-17T15:03:58;27.80;99.90
9828;DHT22;4953;48.952;9.442;2022-10-17T15:06:27;28.00;99.90
9828;DHT22;4953;48.952;9.442;2022-10-17T15:08:56;28.00;99.90
9828;DHT22;4953;48.952;9.442;2022-10-17T15:11:24;28.00;99.90
9828;DHT22;4953;48.952;9.442;2022-10-17T15:13:50;27.90;99.90
9828;DHT22;4953;48.952;9.442;2022-10-17T15:16:20;27.80;99.90
9828;DHT22;4953;48.952;9.442;2022-10-17T15:18:47;27.70;99.90
9828;DHT22;4953;48.952;9.442;2022-10-17T15:21:17;27.50;99.90
9828;DHT22;4953;48.952;9.442;2022-10-17T15:23:44;27.40;99.90
9828;DHT22;4953;48.952;9.442;2022-10-17T15:26:14;27.20;99.90
9828;DHT22;4953;48.952;9.442;2022-10-17T15:28:41;27.00;99.90
9828;DHT22;4953;48.952;9.442;2022-10-17T15:31:10;26.90;99.90
9828;DHT22;4953;48.952;9.442;2022-10-17T15:33:39;26.70;99.90
9828;DHT22;4953;48.952;9.442;2022-10-17T15:36:17;26.50;99.90
9828;DHT22;4953;48.952;9.442;2022-10-17T15:38:47;26.40;99.90
9828;DHT22;4953;48.952;9.442;2022-10-17T15:41:14;26.20;99.90
9828;DHT22;4953;48.952;9.442;2022-10-17T15:43:41;26.10;99.90
9828;DHT22;4953;48.952;9.442;2022-10-17T15:46:12;25.90;99.90
9828;DHT22;4953;48.952;9.442;2022-10-17T15:48:41;25.70;99.90
9828;DHT22;4953;48.952;9.442;2022-10-17T15:51:09;25.60;99.90
9828;DHT22;4953;48.952;9.442;2022-10-17T15:53:36;25.50;99.90
9828;DHT22;4953;48.952;9.442;2022-10-17T15:56:03;25.40;99.90
9828;DHT22;4953;48.952;9.442;2022-10-17T15:58:34;25.20;99.90
9828;DHT22;4953;48.952;9.442;2022-10-17T16:01:01;25.10;99.90
9828;DHT22;4953;48.952;9.442;2022-10-17T16:03:28;25.00;99.90
9828;DHT22;4953;48.952;9.442;2022-10-17T16:05:57;24.80;99.90
9828;DHT22;4953;48.952;9.442;2022-10-17T16:08:24;24.70;99.90
9828;DHT22;4953;48.952;9.442;2022-10-17T16:10:51;24.60;99.90
9828;DHT22;4953;48.952;9.442;2022-10-17T16:13:21;24.50;99.90
9828;DHT22;4953;48.952;9.442;2022-10-17T16:15:48;24.40;99.90
9828;DHT22;4953;48.952;9.442;2022-10-17T16:18:15;24.30;99.90
9828;DHT22;4953;48.952;9.442;2022-10-17T16:20:42;24.20;99.90
9828;DHT22;4953;48.952;9.442;2022-10-17T16:23:11;24.10;99.90
9828;DHT22;4953;48.952;9.442;2022-10-17T16:25:39;24.00;99.90
9828;DHT22;4953;48.952;9.442;2022-10-17T16:28:05;23.90;99.90
9828;DHT22;4953;48.952;9.442;2022-10-17T16:30:36;23.80;99.90
9828;DHT22;4953;48.952;9.442;2022-10-17T16:33:03;23.60;99.90
9828;DHT22;4953;48.952;9.442;2022-10-17T16:35:30;23.50;99.90
9828;DHT22;4953;48.952;9.442;2022-10-17T16:37:57;23.40;99.90
9828;DHT22;4953;48.952;9.442;2022-10-17T16:40:25;23.30;99.90
9828;DHT22;4953;48.952;9.442;2022-10-17T16:42:52;23.20;99.90
9828;DHT22;4953;48.952;9.442;2022-10-17T16:45:20;23.00;99.90
9828;DHT22;4953;48.952;9.442;2022-10-17T16:47:48;22.90;99.90
9828;DHT22;4953;48.952;9.442;2022-10-17T16:50:15;22.80;99.90
9828;DHT22;4953;48.952;9.442;2022-10-17T16:52:42;22.70;99.90
9828;DHT22;4953;48.952;9.442;2022-10-17T16:55:09;22.60;99.90
9828;DHT22;4953;48.952;9.442;2022-10-17T16:57:37;22.40;99.90
9828;DHT22;4953;48.952;9.442;2022-10-17T17:00:06;22.40;99.90
9828;DHT22;4953;48.952;9.442;2022-10-17T17:02:33;22.30;99.90
9828;DHT22;4953;48.952;9.442;2022-10-17T17:04:59;22.30;99.90
9828;DHT22;4953;48.952;9.442;2022-10-17T17:07:26;22.20;99.90
9828;DHT22;4953;48.952;9.442;2022-10-17T17:09:54;22.10;99.90
9828;DHT22;4953;48.952;9.442;2022-10-17T17:12:20;22.00;99.90
9828;DHT22;4953;48.952;9.442;2022-10-17T17:14:49;22.00;99.90
9828;DHT22;4953;48.952;9.442;2022-10-17T17:17:16;21.90;99.90
9828;DHT22;4953;48.952;9.442;2022-10-17T17:19:43;21.80;99.90
9828;DHT22;4953;48.952;9.442;2022-10-17T17:22:11;21.70;99.90
9828;DHT22;4953;48.952;9.442;2022-10-17T17:24:38;21.60;99.90
9828;DHT22;4953;48.952;9.442;2022-10-17T17:27:04;21.50;99.90
9828;DHT22;4953;48.952;9.442;2022-10-17T17:29:31;21.40;99.90
9828;DHT22;4953;48.952;9.442;2022-10-17T17:31:59;21.30;99.90
9828;DHT22;4953;48.952;9.442;2022-10-17T17:34:26;21.20;99.90
9828;DHT22;4953;48.952;9.442;2022-10-17T17:36:53;21.10;99.90
9828;DHT22;4953;48.952;9.442;2022-10-17T17:39:20;21.00;99.90
9828;DHT22;4953;48.952;9.442;2022-10-17T17:41:46;20.90;99.90
9828;DHT22;4953;48.952;9.442;2022-10-17T17:44:13;20.90;99.90
9828;DHT22;4953;48.952;9.442;2022-10-17T17:46:40;20.80;99.90
9828;DHT22;4953;48.952;9.442;2022-10-17T17:49:10;20.70;99.90
9828;DHT22;4953;48.952;9.442;2022-10-17T17:51:37;20.70;99.90
9828;DHT22;4953;48.952;9.442;2022-10-17T17:54:06;20.60;99.90
9828;DHT22;4953;48.952;9.442;2022-10-17T17:56:36;20.60;99.90
9828;DHT22;4953;48.952;9.442;2022-10-17T17:59:02;20.50;99.90
9828;DHT22;4953;48.952;9.442;2022-10-17T18:01:32;20.40;99.90
9828;DHT22;4953;48.952;9.442;2022-10-17T18:04:04;20.30;99.90
9828;DHT22;4953;48.952;9.442;2022-10-17T18:06:32;20.30;99.90
9828;DHT22;4953;48.952;9.442;2022-10-17T18:08:59;20.20;99.90
9828;DHT22;4953;48.952;9.442;2022-10-17T18:11:27;20.10;99.90
9828;DHT22;4953;48.952;9.442;2022-10-17T18:13:55;20.00;99.90
9828;DHT22;4953;48.952;9.442;2022-10-17T18:16:22;20.00;99.90
9828;DHT22;4953;48.952;9.442;2022-10-17T18:18:49;19.90;99.90
9828;DHT22;4953;48.952;9.442;2022-10-17T18:21:16;19.80;99.90
9828;DHT22;4953;48.952;9.442;2022-10-17T18:23:46;19.70;99.90
9828;DHT22;4953;48.952;9.442;2022-10-17T18:26:13;19.70;99.90
9828;DHT22;4953;48.952;9.442;2022-10-17T18:28:41;19.70;99.90
9828;DHT22;4953;48.952;9.442;2022-10-17T18:31:10;19.60;99.90
9828;DHT22;4953;48.952;9.442;2022-10-17T18:33:37;19.50;99.90
9828;DHT22;4953;48.952;9.442;2022-10-17T18:36:06;19.40;99.90
9828;DHT22;4953;48.952;9.442;2022-10-17T18:38:33;19.40;99.90
9828;DHT22;4953;48.952;9.442;2022-10-17T18:41:03;19.30;99.90
9828;DHT22;4953;48.952;9.442;2022-10-17T18:43:32;19.30;99.90
9828;DHT22;4953;48.952;9.442;2022-10-17T18:46:04;19.30;99.90
9828;DHT22;4953;48.952;9.442;2022-10-17T18:48:31;19.20;99.90
9828;DHT22;4953;48.952;9.442;2022-10-17T18:50:59;19.10;99.90
9828;DHT22;4953;48.952;9.442;2022-10-17T18:53:26;19.10;99.90
9828;DHT22;4953;48.952;9.442;2022-10-17T18:55:54;19.00;99.90
9828;DHT22;4953;48.952;9.442;2022-10-17T18:58:22;19.00;99.90
9828;DHT22;4953;48.952;9.442;2022-10-17T19:00:50;18.90;99.90
9828;DHT22;4953;48.952;9.442;2022-10-17T19:03:17;18.90;99.90
9828;DHT22;4953;48.952;9.442;2022-10-17T19:05:44;18.90;99.90
9828;DHT22;4953;48.952;9.442;2022-10-17T19:08:12;18.90;99.90
9828;DHT22;4953;48.952;9.442;2022-10-17T19:10:39;18.80;99.90
9828;DHT22;4953;48.952;9.442;2022-10-17T19:13:06;18.70;99.90
9828;DHT22;4953;48.952;9.442;2022-10-17T19:15:35;18.70;99.90
9828;DHT22;4953;48.952;9.442;2022-10-17T19:18:02;18.70;99.90
9828;DHT22;4953;48.952;9.442;2022-10-17T19:20:28;18.60;99.90
9828;DHT22;4953;48.952;9.442;2022-10-17T19:22:55;18.60;99.90
9828;DHT22;4953;48.952;9.442;2022-10-17T19:25:22;18.50;99.90
9828;DHT22;4953;48.952;9.442;2022-10-17T19:27:50;18.40;99.90
9828;DHT22;4953;48.952;9.442;2022-10-17T19:30:17;18.40;99.90
9828;DHT22;4953;48.952;9.442;2022-10-17T19:32:45;18.40;99.90
9828;DHT22;4953;48.952;9.442;2022-10-17T19:35:12;18.30;99.90
9828;DHT22;4953;48.952;9.442;2022-10-17T19:37:39;18.30;99.90
9828;DHT22;4953;48.952;9.442;2022-10-17T19:40:07;18.20;99.90
9828;DHT22;4953;48.952;9.442;2022-10-17T19:42:34;18.10;99.90
9828;DHT22;4953;48.952;9.442;2022-10-17T19:45:01;18.10;99.90
9828;DHT22;4953;48.952;9.442;2022-10-17T19:47:28;18.00;99.90
9828;DHT22;4953;48.952;9.442;2022-10-17T19:49:56;18.00;99.90
9828;DHT22;4953;48.952;9.442;2022-10-17T19:52:23;17.90;99.90
9828;DHT22;4953;48.952;9.442;2022-10-17T19:54:50;17.90;99.90
9828;DHT22;4953;48.952;9.442;2022-10-17T19:57:17;17.80;99.90
9828;DHT22;4953;48.952;9.442;2022-10-17T19:59:44;17.80;99.90
9828;DHT22;4953;48.952;9.442;2022-10-17T20:02:11;17.70;99.90
9828;DHT22;4953;48.952;9.442;2022-10-17T20:04:38;17.70;99.90
9828;DHT22;4953;48.952;9.442;2022-10-17T20:07:06;17.60;99.90
9828;DHT22;4953;48.952;9.442;2022-10-17T20:09:34;17.60;99.90
9828;DHT22;4953;48.952;9.442;2022-10-17T20:12:01;17.60;99.90
9828;DHT22;4953;48.952;9.442;2022-10-17T20:14:27;17.50;99.90
9828;DHT22;4953;48.952;9.442;2022-10-17T20:16:54;17.40;99.90
9828;DHT22;4953;48.952;9.442;2022-10-17T20:19:21;17.40;99.90
9828;DHT22;4953;48.952;9.442;2022-10-17T20:21:48;17.40;99.90
9828;DHT22;4953;48.952;9.442;2022-10-17T20:24:16;17.40;99.90